createdAt,value
2019-03-27T00:01:25.924Z,63.06
2019-03-27T00:06:35.712Z,63.09
2019-03-27T00:11:44.477Z,62.78
2019-03-27T00:16:52.623Z,61.86
2019-03-27T00:22:04.659Z,61.16
2019-03-27T00:27:12.561Z,61.34
2019-03-27T00:32:20.476Z,61.37
2019-03-27T00:37:28.496Z,60.28
2019-03-27T00:42:36.360Z,60.14
2019-03-27T00:47:47.526Z,60.39
2019-03-27T00:52:55.856Z,60.19
2019-03-27T00:58:06.541Z,60.32
2019-03-27T01:03:17.054Z,60.86
2019-03-27T01:08:25.391Z,61.21
2019-03-27T01:13:34.448Z,61.40
2019-03-27T01:18:44.160Z,61.64
2019-03-27T01:23:52.491Z,61.12
2019-03-27T01:29:00.505Z,62.76
2019-03-27T01:34:08.848Z,62.96
2019-03-27T01:39:28.004Z,62.88
2019-03-27T01:44:35.802Z,62.98
2019-03-27T01:49:47.192Z,63.33
2019-03-27T01:54:58.296Z,63.32
2019-03-27T02:00:09.240Z,63.96
2019-03-27T02:05:26.392Z,64.06
2019-03-27T02:10:34.868Z,64.30
2019-03-27T02:15:44.374Z,64.70
2019-03-27T02:20:55.800Z,64.61
2019-03-27T02:26:03.979Z,64.35
2019-03-27T02:31:11.947Z,64.63
2019-03-27T02:36:19.990Z,65.17
2019-03-27T02:41:27.892Z,65.33
2019-03-27T02:46:35.875Z,65.46
2019-03-27T02:51:44.001Z,66.55
2019-03-27T02:56:52.321Z,66.35
2019-03-27T03:02:03.295Z,67.00
2019-03-27T03:07:13.733Z,67.12
2019-03-27T03:12:22.222Z,66.82
2019-03-27T03:17:31.349Z,67.02
2019-03-27T03:22:40.319Z,66.65
2019-03-27T03:27:48.868Z,67.82
2019-03-27T03:32:58.047Z,67.66
2019-03-27T03:38:06.797Z,67.33
2019-03-27T03:43:15.611Z,67.02
2019-03-27T03:48:25.843Z,66.81
2019-03-27T03:53:35.273Z,65.93
2019-03-27T03:58:44.861Z,65.29
2019-03-27T04:03:55.569Z,64.18
2019-03-27T04:09:03.795Z,65.82
2019-03-27T04:14:13.009Z,65.80
2019-03-27T04:19:21.710Z,66.28
2019-03-27T04:24:30.814Z,66.48
2019-03-27T04:29:39.120Z,67.98
2019-03-27T04:34:50.099Z,69.33
2019-03-27T04:40:16.862Z,70.78
2019-03-27T04:45:25.376Z,70.58
2019-03-27T04:50:33.629Z,72.05
2019-03-27T04:55:42.302Z,70.80
2019-03-27T05:01:10.360Z,71.34
2019-03-27T05:06:18.557Z,71.99
2019-03-27T05:11:29.822Z,71.08
2019-03-27T05:16:41.620Z,70.96
2019-03-27T05:21:53.113Z,71.38
2019-03-27T05:27:04.748Z,71.22
2019-03-27T05:32:12.710Z,70.92
2019-03-27T05:37:21.882Z,71.93
2019-03-27T05:42:29.149Z,71.76
2019-03-27T05:47:41.730Z,71.69
2019-03-27T05:52:56.553Z,71.77
2019-03-27T05:58:08.021Z,72.23
2019-03-27T06:03:17.104Z,71.09
2019-03-27T06:08:25.569Z,72.44
2019-03-27T06:13:33.995Z,72.15
2019-03-27T06:18:42.492Z,72.26
2019-03-27T06:23:53.277Z,70.92
2019-03-27T06:29:02.449Z,70.75
2019-03-27T06:34:10.223Z,70.09
2019-03-27T06:39:18.756Z,70.24
2019-03-27T06:44:26.802Z,70.54
2019-03-27T06:49:34.615Z,69.17
2019-03-27T06:54:44.600Z,70.76
2019-03-27T06:59:53.263Z,70.73
2019-03-27T07:05:04.599Z,69.76
2019-03-27T07:10:13.041Z,69.30
2019-03-27T07:15:23.795Z,68.80
2019-03-27T07:20:33.782Z,68.23
2019-03-27T07:25:42.636Z,69.24
2019-03-27T07:30:58.096Z,70.00
2019-03-27T07:36:10.609Z,68.42
2019-03-27T07:41:19.162Z,67.62
2019-03-27T07:46:27.208Z,67.71
2019-03-27T07:51:36.084Z,67.39
2019-03-27T07:56:45.895Z,67.70
2019-03-27T08:01:54.431Z,68.31
2019-03-27T08:07:02.910Z,67.10
2019-03-27T08:12:16.513Z,68.09
2019-03-27T08:17:27.676Z,68.77
2019-03-27T08:22:37.712Z,68.41
2019-03-27T08:27:50.411Z,67.02
2019-03-27T08:32:58.770Z,63.81
2019-03-27T08:38:14.988Z,63.09
2019-03-27T08:43:25.495Z,63.38
2019-03-27T08:48:32.546Z,64.27
2019-03-27T08:53:40.888Z,64.74
2019-03-27T08:58:49.323Z,63.68
2019-03-27T09:03:58.225Z,62.49
2019-03-27T09:09:09.107Z,62.32
2019-03-27T09:14:17.335Z,61.77
2019-03-27T09:19:35.516Z,62.32
2019-03-27T09:24:36.864Z,62.02
2019-03-27T09:29:46.748Z,62.54
2019-03-27T09:34:55.123Z,63.04
2019-03-27T09:40:07.338Z,62.04
2019-03-27T09:45:18.207Z,60.85
2019-03-27T09:50:26.115Z,58.82
2019-03-27T09:55:35.355Z,59.91
2019-03-27T10:01:04.061Z,61.16
2019-03-27T10:06:16.686Z,60.04
2019-03-27T10:11:25.698Z,58.96
2019-03-27T10:16:36.881Z,60.19
2019-03-27T10:21:44.906Z,60.50
2019-03-27T10:26:53.469Z,60.11
2019-03-27T10:32:03.142Z,58.01
2019-03-27T10:37:11.800Z,57.96
2019-03-27T10:42:19.840Z,57.87
2019-03-27T10:47:27.889Z,57.08
2019-03-27T10:52:35.863Z,56.04
2019-03-27T10:57:48.240Z,56.27
2019-03-27T11:02:56.496Z,56.54
2019-03-27T11:08:06.865Z,54.89
2019-03-27T11:13:15.532Z,52.28
2019-03-27T11:18:24.966Z,52.15
2019-03-27T11:23:35.176Z,53.81
2019-03-27T11:28:43.515Z,53.59
2019-03-27T11:33:56.767Z,54.19
2019-03-27T11:39:07.159Z,55.64
2019-03-27T11:44:15.866Z,56.28
2019-03-27T11:49:27.804Z,56.03
2019-03-27T11:54:36.173Z,56.45
2019-03-27T11:59:53.868Z,54.92
2019-03-27T12:05:06.313Z,54.12
2019-03-27T12:10:13.976Z,54.04
2019-03-27T12:15:42.662Z,51.86
2019-03-27T12:20:58.806Z,50.88
2019-03-27T12:26:03.537Z,52.41
2019-03-27T12:31:13.725Z,52.77
2019-03-27T12:36:25.580Z,52.12
2019-03-27T12:41:34.007Z,54.63
2019-03-27T12:46:42.258Z,54.53
2019-03-27T12:51:50.348Z,54.06
2019-03-27T12:56:58.644Z,54.17
2019-03-27T13:02:09.775Z,53.69
2019-03-27T13:07:18.136Z,53.55
2019-03-27T13:12:27.144Z,52.84
2019-03-27T13:17:35.609Z,52.52
2019-03-27T13:22:46.680Z,53.60
2019-03-27T13:27:55.738Z,53.77
2019-03-27T13:33:05.094Z,52.02
2019-03-27T13:38:15.134Z,51.51
2019-03-27T13:43:25.426Z,52.05
2019-03-27T13:48:34.168Z,52.70
2019-03-27T13:53:42.083Z,53.65
2019-03-27T13:58:50.728Z,54.03
2019-03-27T14:04:00.806Z,53.19
2019-03-27T14:09:10.199Z,53.97
2019-03-27T14:14:19.592Z,54.53
2019-03-27T14:19:27.771Z,55.44
2019-03-27T14:24:35.586Z,54.88
2019-03-27T14:29:43.742Z,53.71
2019-03-27T14:34:53.841Z,53.06
2019-03-27T14:40:08.146Z,52.15
2019-03-27T14:45:17.682Z,52.74
2019-03-27T14:50:26.215Z,53.11
2019-03-27T14:55:35.188Z,53.47
2019-03-27T15:00:48.299Z,53.64
2019-03-27T15:05:56.031Z,56.07
2019-03-27T15:11:03.874Z,54.68
2019-03-27T15:16:12.121Z,55.34
2019-03-27T15:21:21.856Z,54.77
2019-03-27T15:26:31.748Z,55.14
2019-03-27T15:31:43.269Z,54.46
2019-03-27T15:36:51.072Z,53.65
2019-03-27T15:42:03.127Z,55.26
2019-03-27T15:47:12.336Z,56.35
2019-03-27T15:52:20.441Z,55.74
2019-03-27T15:57:31.921Z,55.21
2019-03-27T16:02:41.179Z,56.25
2019-03-27T16:07:50.522Z,56.61
2019-03-27T16:12:59.936Z,56.37
2019-03-27T16:18:16.534Z,56.35
2019-03-27T16:23:32.139Z,56.44
2019-03-27T16:28:39.046Z,55.61
2019-03-27T16:33:48.301Z,55.81
2019-03-27T16:38:57.585Z,56.20
2019-03-27T16:44:07.559Z,56.78
2019-03-27T16:49:15.724Z,56.03
2019-03-27T16:54:29.860Z,56.13
2019-03-27T16:59:41.539Z,56.47
2019-03-27T17:04:50.575Z,56.54
2019-03-27T17:09:59.045Z,57.46
2019-03-27T17:15:08.296Z,57.06
2019-03-27T17:20:17.723Z,56.90
2019-03-27T17:25:26.892Z,56.62
2019-03-27T17:30:35.906Z,56.26
2019-03-27T17:35:44.336Z,55.69
2019-03-27T17:53:55.456Z,57.62
2019-03-27T17:59:07.310Z,57.08
2019-03-27T18:04:17.460Z,56.93
2019-03-27T18:09:26.440Z,56.57
2019-03-27T18:14:34.413Z,57.33
2019-03-27T18:19:42.486Z,57.58
2019-03-27T18:24:59.078Z,57.58
2019-03-27T18:30:08.497Z,57.23
2019-03-27T18:35:16.447Z,56.69
2019-03-27T18:40:28.035Z,56.20
2019-03-27T18:45:36.985Z,56.96
2019-03-27T18:50:46.261Z,57.15
2019-03-27T18:55:56.734Z,57.22
2019-03-27T19:01:17.415Z,57.23
2019-03-27T19:06:26.621Z,57.06
2019-03-27T19:11:42.050Z,57.62
2019-03-27T19:16:50.443Z,57.90
2019-03-27T19:22:07.338Z,57.93
2019-03-27T19:27:18.855Z,57.73
2019-03-27T19:32:35.681Z,57.97
2019-03-27T19:37:45.724Z,57.71
2019-03-27T19:42:58.605Z,57.68
2019-03-27T19:48:12.264Z,57.67
2019-03-27T19:53:23.199Z,57.40
2019-03-27T19:58:33.506Z,56.94
2019-03-27T20:03:47.417Z,57.39
2019-03-27T20:08:56.967Z,57.74
2019-03-27T20:14:09.350Z,57.67
2019-03-27T20:19:20.951Z,58.05
2019-03-27T20:24:40.430Z,58.04
2019-03-27T20:29:51.473Z,57.58
2019-03-27T20:35:01.376Z,57.73
2019-03-27T20:40:16.643Z,58.09
2019-03-27T20:45:25.162Z,58.60
2019-03-27T20:50:37.390Z,58.44
2019-03-27T20:55:46.303Z,59.83
2019-03-27T21:00:54.586Z,60.29
2019-03-27T21:06:03.743Z,61.63
2019-03-27T21:11:15.608Z,60.54
2019-03-27T21:16:28.630Z,62.40
2019-03-27T21:21:37.303Z,62.66
2019-03-27T21:26:49.212Z,66.31
2019-03-27T21:31:58.772Z,64.03
2019-03-27T21:37:08.539Z,64.00
2019-03-27T21:42:16.767Z,64.68
2019-03-27T21:47:27.336Z,65.44
2019-03-27T21:52:38.221Z,67.19
2019-03-27T21:57:47.403Z,67.35
2019-03-27T22:02:55.299Z,67.53
2019-03-27T22:08:04.274Z,69.29
2019-03-27T22:13:17.286Z,68.97
2019-03-27T22:18:26.917Z,68.53
2019-03-27T22:23:36.237Z,68.99
2019-03-27T22:28:44.675Z,69.79
2019-03-27T22:33:55.277Z,69.65
2019-03-27T22:39:05.951Z,69.75
2019-03-27T22:44:16.078Z,70.30
2019-03-27T22:49:26.115Z,70.22
2019-03-27T22:54:34.283Z,69.43
2019-03-27T22:59:42.653Z,69.86
2019-03-27T23:04:50.768Z,69.42
2019-03-27T23:10:03.318Z,69.63
2019-03-27T23:15:12.736Z,68.95
2019-03-27T23:20:21.528Z,68.66
2019-03-27T23:25:32.505Z,68.80
2019-03-27T23:30:40.974Z,69.25
2019-03-27T23:35:49.010Z,69.06
2019-03-27T23:40:57.128Z,68.22
2019-03-27T23:51:24.803Z,69.00
2019-03-27T23:56:32.834Z,68.58
